< < Back
Terminal Aerodrome Forecast


Current Version              Previous Versions:   1  2  3  4  5  6  7  8  9  

Terminal Aerodrome Forecast

607
FTUS42 KFFC 242322
TAFPDK
TAF
KPDK 242322Z 2500/2524 00000KT P6SM SCT250
     FM251500 09004KT P6SM FEW035
     FM251800 11006KT P6SM SCT050=



Latest METAR

468
SAUS70 KWBC 250900 RRI
MTRPDK
METAR KPDK 250853Z AUTO 00000KT 10SM CLR 19/17 A3008 RMK AO2 SLP166
T01940172 53003


USA.gov is the U.S. government's official web portal to all federal, state and local government web resources and services.